Time;durP1;ratioP1;P1;durP2;ratioP2;P2;SDS_P1;SDS_P2;PMS_P1;PMS_P2;Temp;Humidity;BMP_temperature;BMP_pressure;BME280_temperature;BME280_humidity;BME280_pressure;Samples;Min_cycle;Max_cycle;Signal;HPM_P1;HPM_P2
2021/07/12 00:03:10;;;;;;;8.77;4.97;;;16.80;99.90;;;;;;6723681;88;20199;-81
2021/07/12 00:13:11;;;;;;;7.32;5.20;;;16.70;99.90;;;;;;6724278;88;20189;-81
2021/07/12 00:23:11;;;;;;;7.87;4.75;;;16.60;99.90;;;;;;6722111;88;20771;-81
2021/07/12 00:33:12;;;;;;;9.43;4.78;;;16.40;99.90;;;;;;6712718;88;20226;-81
2021/07/12 00:43:12;;;;;;;7.68;4.93;;;16.30;99.90;;;;;;6708631;88;20630;-81
2021/07/12 00:53:14;;;;;;;8.88;5.05;;;16.30;99.90;;;;;;6714877;88;20219;-82
2021/07/12 01:03:15;;;;;;;7.03;4.75;;;16.50;99.90;;;;;;6716535;88;20322;-81
2021/07/12 01:13:39;;;;;;;8.15;4.95;;;16.30;99.90;;;;;;6716919;88;20620;-81
2021/07/12 01:24:23;;;;;;;8.15;4.80;;;16.30;99.90;;;;;;6716910;88;20219;-81
2021/07/12 01:34:32;;;;;;;6.93;4.22;;;16.00;99.90;;;;;;6716192;88;20193;-80
2021/07/12 01:44:51;;;;;;;5.97;4.50;;;15.90;99.90;;;;;;6716068;88;20653;-81
2021/07/12 01:55:05;;;;;;;7.90;4.70;;;16.00;99.90;;;;;;6699051;88;20199;-81
2021/07/12 02:05:11;;;;;;;8.95;5.50;;;15.70;99.90;;;;;;6696322;88;20179;-80
2021/07/12 02:15:14;;;;;;;9.10;5.07;;;15.60;99.90;;;;;;6696367;88;20202;-80
2021/07/12 02:25:16;;;;;;;9.70;6.00;;;15.50;99.90;;;;;;6695599;88;20239;-80
2021/07/12 02:35:17;;;;;;;8.20;5.40;;;15.70;99.90;;;;;;6693679;88;20197;-80
2021/07/12 02:45:19;;;;;;;11.68;5.78;;;15.60;99.90;;;;;;6696273;88;20195;-80
2021/07/12 02:55:20;;;;;;;12.75;6.30;;;15.60;99.90;;;;;;6699563;88;20182;-81
2021/07/12 03:05:20;;;;;;;9.57;5.90;;;15.40;99.90;;;;;;6709937;88;21182;-80
2021/07/12 03:15:40;;;;;;;7.47;5.77;;;15.40;99.90;;;;;;6713018;78;20363;-77
2021/07/12 03:25:50;;;;;;;13.57;7.35;;;15.40;99.90;;;;;;6726243;88;20545;-78
2021/07/12 03:35:52;;;;;;;14.00;7.22;;;15.50;99.90;;;;;;6726300;88;20216;-76
2021/07/12 03:45:56;;;;;;;12.13;6.72;;;15.40;99.90;;;;;;6725908;88;20639;-77
2021/07/12 03:55:56;;;;;;;17.02;6.78;;;15.40;99.90;;;;;;6716786;88;20181;-76
2021/07/12 04:05:57;;;;;;;12.55;6.75;;;15.30;99.90;;;;;;6719699;88;20283;-76
2021/07/12 04:15:58;;;;;;;10.65;6.37;;;15.30;99.90;;;;;;6724420;88;20301;-77
2021/07/12 04:25:58;;;;;;;12.18;8.15;;;15.30;99.90;;;;;;6723441;88;20181;-76
2021/07/12 04:35:59;;;;;;;12.20;8.30;;;15.40;99.90;;;;;;6724553;88;20311;-76
2021/07/12 04:45:59;;;;;;;13.73;8.05;;;15.60;99.90;;;;;;6725974;88;20304;-77
2021/07/12 04:56:02;;;;;;;14.43;8.38;;;15.60;99.90;;;;;;6722146;88;20215;-76
2021/07/12 05:06:02;;;;;;;12.05;7.97;;;15.80;99.90;;;;;;6732261;88;20207;-77
2021/07/12 05:16:03;;;;;;;14.57;9.23;;;16.00;99.90;;;;;;6724884;88;20205;-76
2021/07/12 05:26:04;;;;;;;14.73;9.10;;;16.30;99.90;;;;;;6721869;88;21080;-76
2021/07/12 05:36:05;;;;;;;16.10;9.80;;;16.50;99.90;;;;;;6730318;88;20737;-77
2021/07/12 05:46:06;;;;;;;17.00;9.85;;;16.50;99.90;;;;;;6734687;88;20185;-76
2021/07/12 05:56:06;;;;;;;13.68;8.93;;;16.70;99.90;;;;;;6733738;88;20210;-76
2021/07/12 06:06:07;;;;;;;16.73;9.30;;;17.00;99.90;;;;;;6729835;88;20221;-77
2021/07/12 06:16:07;;;;;;;13.07;8.05;;;17.20;99.90;;;;;;6714122;88;20195;-76
2021/07/12 06:26:08;;;;;;;15.38;8.60;;;17.70;99.90;;;;;;6699854;88;20235;-75
2021/07/12 06:36:09;;;;;;;13.30;7.18;;;18.20;99.90;;;;;;6711137;88;20309;-77
2021/07/12 06:46:09;;;;;;;9.07;6.43;;;18.70;99.90;;;;;;6712375;88;20633;-79
2021/07/12 06:56:11;;;;;;;7.87;6.07;;;19.10;99.90;;;;;;6706249;88;20292;-77
2021/07/12 07:06:12;;;;;;;8.48;5.97;;;19.30;99.90;;;;;;6711264;88;20210;-76
2021/07/12 07:16:14;;;;;;;7.90;5.72;;;19.80;99.90;;;;;;6714984;88;20229;-78
2021/07/12 07:26:14;;;;;;;6.85;5.22;;;20.10;99.90;;;;;;6716081;88;20773;-78
2021/07/12 07:36:16;;;;;;;7.87;4.47;;;20.90;99.90;;;;;;6716776;88;20362;-78
2021/07/12 07:46:17;;;;;;;7.07;4.80;;;21.30;99.90;;;;;;6716285;88;20214;-78
2021/07/12 07:56:18;;;;;;;7.18;4.87;;;21.20;99.90;;;;;;6717855;88;20359;-76
2021/07/12 08:06:18;;;;;;;6.97;5.03;;;22.10;99.90;;;;;;6718892;88;20180;-76
2021/07/12 08:16:19;;;;;;;5.68;4.32;;;23.10;99.90;;;;;;6718553;88;20249;-77
2021/07/12 08:26:19;;;;;;;9.13;5.03;;;24.30;99.90;;;;;;6719120;88;20248;-77
2021/07/12 08:36:20;;;;;;;4.00;3.45;;;25.00;99.90;;;;;;6715505;88;20203;-78
2021/07/12 08:46:21;;;;;;;5.40;3.42;;;25.40;99.90;;;;;;6712014;88;20310;-78
2021/07/12 08:56:22;;;;;;;8.13;3.80;;;26.10;99.90;;;;;;6701626;88;20759;-77
2021/07/12 09:06:25;;;;;;;3.05;2.67;;;25.60;99.90;;;;;;6701257;88;20200;-77
2021/07/12 10:47:42;;;;;;;2.50;1.70;;;27.70;99.70;;;;;;6744941;78;20258;-83
2021/07/12 10:57:43;;;;;;;3.35;1.70;;;26.90;98.90;;;;;;6739219;88;20166;-83
2021/07/12 11:07:48;;;;;;;2.40;1.70;;;26.40;99.90;;;;;;6731938;88;20280;-82
2021/07/12 11:17:56;;;;;;;2.72;1.70;;;26.40;99.90;;;;;;6747584;88;20288;-82
2021/07/12 11:28:17;;;;;;;1.70;1.50;;;25.60;99.80;;;;;;6748342;88;20145;-83
2021/07/12 11:38:18;;;;;;;2.50;1.87;;;25.60;99.90;;;;;;6747562;88;20302;-82
2021/07/12 11:48:19;;;;;;;3.15;1.50;;;25.50;99.90;;;;;;6747393;88;20185;-82
2021/07/12 11:58:22;;;;;;;2.35;1.62;;;25.40;99.90;;;;;;6749198;88;20696;-82
2021/07/12 12:08:22;;;;;;;3.13;2.47;;;25.20;99.90;;;;;;6661712;88;20283;-83
2021/07/12 12:18:29;;;;;;;4.72;2.20;;;25.30;99.90;;;;;;6661800;88;20211;-83
2021/07/12 12:28:44;;;;;;;2.42;2.08;;;24.90;99.90;;;;;;6664788;88;20283;-82
2021/07/12 12:38:53;;;;;;;2.80;1.90;;;24.70;99.90;;;;;;6660153;88;20204;-82
2021/07/12 12:48:54;;;;;;;4.18;1.90;;;24.50;99.90;;;;;;6649161;88;20254;-82
2021/07/12 12:58:59;;;;;;;4.30;1.90;;;24.60;99.90;;;;;;6734813;88;20248;-84
2021/07/12 13:09:00;;;;;;;3.00;2.12;;;24.30;99.90;;;;;;6713565;88;20681;-82
2021/07/12 13:19:01;;;;;;;4.37;2.10;;;24.20;99.90;;;;;;6647480;88;20186;-82
2021/07/12 13:29:02;;;;;;;4.47;2.17;;;24.30;99.90;;;;;;6647671;88;20260;-83
2021/07/12 13:39:02;;;;;;;3.03;2.23;;;24.40;99.90;;;;;;6648886;88;20861;-83
2021/07/12 13:49:03;;;;;;;4.22;2.20;;;24.50;99.90;;;;;;6646959;88;20231;-83
2021/07/12 13:59:04;;;;;;;2.55;2.30;;;24.80;99.90;;;;;;6645647;88;20288;-83
2021/07/12 14:09:04;;;;;;;4.35;2.40;;;25.30;99.90;;;;;;6645974;88;20213;-83
2021/07/12 14:19:05;;;;;;;3.35;2.42;;;25.00;99.90;;;;;;6646959;88;20248;-82
2021/07/12 14:29:06;;;;;;;4.75;2.80;;;24.70;99.90;;;;;;6644486;88;20226;-84
2021/07/12 14:39:07;;;;;;;4.95;2.22;;;24.70;99.90;;;;;;6644664;88;20198;-85
2021/07/12 14:49:08;;;;;;;4.75;2.80;;;24.60;99.90;;;;;;6644575;88;20157;-85
2021/07/12 14:59:08;;;;;;;4.20;2.50;;;24.30;99.90;;;;;;6646507;88;20319;-84
2021/07/12 15:09:09;;;;;;;3.40;2.60;;;24.20;99.90;;;;;;6628170;88;20201;-84
2021/07/12 15:19:09;;;;;;;3.13;2.60;;;24.10;99.90;;;;;;6714481;88;20230;-82
2021/07/12 15:29:10;;;;;;;6.35;2.80;;;24.10;99.90;;;;;;6714106;88;20196;-85
2021/07/12 15:49:14;;;;;;;4.82;2.50;;;24.30;99.90;;;;;;6717214;88;20512;-84
2021/07/12 15:59:21;;;;;;;4.70;2.50;;;25.00;99.90;;;;;;6717423;88;20285;-84
2021/07/12 16:09:22;;;;;;;5.25;2.30;;;25.70;99.90;;;;;;6696329;88;20263;-85
2021/07/12 16:19:24;;;;;;;4.25;2.20;;;25.40;99.90;;;;;;6663281;89;20165;-85
2021/07/12 16:29:25;;;;;;;3.25;2.08;;;26.30;99.90;;;;;;6662728;89;20292;-81
2021/07/12 16:39:25;;;;;;;3.78;2.20;;;26.80;99.90;;;;;;6683129;88;20228;-78
2021/07/12 16:49:27;;;;;;;2.40;2.03;;;26.10;99.90;;;;;;6705137;88;20329;-80
2021/07/12 16:59:28;;;;;;;3.67;2.30;;;26.30;99.90;;;;;;6725262;88;20184;-81
2021/07/12 17:09:29;;;;;;;2.45;2.03;;;25.40;99.90;;;;;;6724967;88;20244;-81
2021/07/12 17:19:29;;;;;;;3.53;2.30;;;25.00;99.90;;;;;;6726039;88;20389;-82
2021/07/12 17:29:31;;;;;;;3.90;2.28;;;24.60;99.90;;;;;;6727013;88;20594;-82
2021/07/12 17:39:32;;;;;;;5.80;2.22;;;24.40;99.90;;;;;;6724533;88;20200;-84
2021/07/12 17:49:33;;;;;;;4.62;2.17;;;24.10;99.90;;;;;;6711682;88;20194;-83
2021/07/12 17:59:33;;;;;;;4.55;2.33;;;24.00;99.90;;;;;;6709078;88;20235;-82
2021/07/12 18:09:34;;;;;;;3.33;2.30;;;23.70;99.90;;;;;;6715457;88;20713;-84
2021/07/12 18:19:35;;;;;;;2.97;2.50;;;23.50;99.90;;;;;;6710904;88;20209;-83
2021/07/12 18:29:40;;;;;;;6.40;2.72;;;23.60;99.90;;;;;;6712912;88;20163;-84
2021/07/12 18:49:47;;;;;;;4.00;3.28;;;23.90;99.90;;;;;;6731293;88;20225;-80
2021/07/12 18:59:48;;;;;;;4.53;3.50;;;23.60;99.90;;;;;;6706685;88;20179;-76
2021/07/12 19:09:49;;;;;;;5.35;3.08;;;23.20;99.90;;;;;;6685531;88;20238;-75
2021/07/12 19:19:51;;;;;;;3.90;2.90;;;23.20;99.90;;;;;;6682676;88;20314;-73
2021/07/12 19:29:52;;;;;;;4.97;2.90;;;23.20;99.90;;;;;;6687730;88;20291;-76
2021/07/12 19:39:52;;;;;;;3.85;2.65;;;23.20;99.90;;;;;;6692560;88;20673;-76
2021/07/12 19:49:57;;;;;;;6.57;3.53;;;23.10;99.90;;;;;;6691142;88;20203;-74
2021/07/12 19:59:58;;;;;;;6.40;3.67;;;23.00;99.90;;;;;;6693630;88;20896;-74
2021/07/12 20:09:59;;;;;;;5.12;3.25;;;22.50;99.90;;;;;;6692080;88;20231;-74
2021/07/12 20:20:00;;;;;;;4.20;2.72;;;22.30;99.90;;;;;;6692176;88;20201;-75
2021/07/12 20:30:03;;;;;;;4.22;3.10;;;22.30;99.90;;;;;;6685930;88;20195;-78
2021/07/12 20:40:06;;;;;;;4.75;2.97;;;22.30;99.90;;;;;;6702871;88;21120;-79
2021/07/12 20:50:09;;;;;;;6.45;3.85;;;22.20;99.90;;;;;;6707978;88;20277;-79
2021/07/12 21:00:16;;;;;;;5.13;3.73;;;22.20;99.90;;;;;;6706683;88;20602;-79
2021/07/12 21:10:19;;;;;;;6.80;3.90;;;21.80;99.90;;;;;;6705614;88;20199;-78
2021/07/12 21:20:20;;;;;;;7.07;3.30;;;22.10;99.90;;;;;;6709351;88;20199;-78
2021/07/12 21:30:21;;;;;;;4.28;3.47;;;22.00;99.90;;;;;;6705356;88;20207;-77
2021/07/12 21:40:24;;;;;;;4.90;3.67;;;21.70;99.90;;;;;;6695217;77;21136;-79
2021/07/12 21:50:24;;;;;;;5.22;3.75;;;21.60;99.90;;;;;;6637799;89;20210;-78
2021/07/12 22:00:27;;;;;;;5.95;3.78;;;21.30;99.90;;;;;;6618269;89;20223;-79
2021/07/12 22:10:39;;;;;;;5.07;3.65;;;21.10;99.90;;;;;;6686883;88;20194;-79
2021/07/12 22:20:39;;;;;;;4.75;3.80;;;20.70;99.90;;;;;;6715653;88;20176;-79
2021/07/12 22:30:47;;;;;;;4.20;3.50;;;20.30;99.90;;;;;;6716312;88;20259;-79
2021/07/12 22:40:48;;;;;;;4.05;3.30;;;20.20;99.90;;;;;;6715931;88;20628;-79
2021/07/12 22:50:50;;;;;;;4.95;3.42;;;19.60;99.90;;;;;;6712808;88;20209;-79
2021/07/12 23:00:51;;;;;;;5.82;4.03;;;19.30;99.90;;;;;;6702298;88;20253;-78
2021/07/12 23:10:51;;;;;;;6.32;4.72;;;19.00;99.90;;;;;;6699226;88;20256;-78
2021/07/12 23:20:52;;;;;;;7.62;5.07;;;18.80;99.90;;;;;;6696151;88;20186;-77
2021/07/12 23:30:52;;;;;;;6.30;4.72;;;18.80;99.90;;;;;;6696344;88;20182;-78
2021/07/12 23:40:53;;;;;;;7.47;4.90;;;18.80;99.90;;;;;;6698189;88;20198;-77
2021/07/12 23:50:53;;;;;;;8.07;5.57;;;18.80;99.90;;;;;;6691345;88;20191;-78
